LGKF/EFL METAR and TAF weather

Enter ICAO airport designator
Station Type Date Time Source
LGKF METAR 2019/11/21 17:50 UTC NOAA

LGKF 211750Z 00000KT 9999 FEW016 SCT070 15/12 Q1014


Station Type Date Time Source
LGKF Decoded METAR 2019/11/21 17:50 UTC NOAA

Kefalhnia Airport , Greece (LGKF) 38-07N 020-30E 22M
Nov 21, 2019 - 12:50 PM EST / 2019.11.21 1750 UTC
Wind: Calm:0
Visibility: greater than 7 mile(s):0
Sky conditions: partly cloudy
Temperature: 59 F (15 C)
Dew Point: 53 F (12 C)
Relative Humidity: 82%
Pressure (altimeter): 29.94 in. Hg (1014 hPa)
ob: LGKF 211750Z 00000KT 9999 FEW016 SCT070 15/12 Q1014
cycle: 18

Station Type Date Time Source
LGKF TAF 2011/03/20 15:06 UTC NOAA

TAF LGKF 201400Z 2015/2103 05012KT 9999 FEW020 SCT080 PROB30
TEMPO 2015/2003 6000 RA SCT020 BKN060 PROB30
TEMPO 2015/2021 4000 TSRA SCT015 FEW018CB BKN025

Example: see airport list